createdAt,value
2022-10-07T02:12:56.455Z,101070.00
2022-10-07T02:13:49.171Z,101068.66
2022-10-07T02:14:44.798Z,101063.16
2022-10-07T02:15:34.147Z,101071.38
2022-10-07T02:16:24.231Z,101065.09
2022-10-07T02:17:09.843Z,101063.16
2022-10-07T02:17:53.703Z,101059.63
2022-10-07T02:18:38.281Z,101057.69
2022-10-07T02:19:23.865Z,101057.97
2022-10-07T02:20:07.494Z,101065.34
2022-10-07T02:20:51.390Z,101064.00
2022-10-07T02:21:31.759Z,101054.97
2022-10-07T02:22:19.079Z,101058.25
2022-10-07T02:23:05.430Z,101051.97
2022-10-07T02:23:54.809Z,101055.25
2022-10-07T02:24:52.966Z,101058.53
2022-10-07T02:25:45.824Z,101058.78
2022-10-07T02:26:43.471Z,101054.41
2022-10-07T02:27:30.940Z,101059.34
2022-10-07T02:28:23.724Z,101053.88
2022-10-07T02:29:16.662Z,101055.25
2022-10-07T02:30:11.304Z,101050.88
2022-10-07T02:31:57.031Z,101046.78
2022-10-07T02:33:13.953Z,101049.22
2022-10-07T02:34:20.168Z,101047.03
2022-10-07T02:35:15.725Z,101035.00
2022-10-07T02:36:14.909Z,101032.28
2022-10-07T02:38:24.139Z,101037.19
2022-10-07T02:39:14.980Z,101037.19
2022-10-07T02:39:59.026Z,101033.09
2022-10-07T02:40:44.021Z,101028.19
2022-10-07T02:41:29.804Z,101027.09
2022-10-07T02:42:15.267Z,101027.91
2022-10-07T02:43:03.819Z,101033.09
2022-10-07T02:43:47.251Z,101029.28
2022-10-07T02:44:29.995Z,101026.81
2022-10-07T02:45:17.185Z,101027.09
2022-10-07T02:46:05.659Z,101024.91
2022-10-07T02:49:01.447Z,101021.88
2022-10-07T02:49:47.033Z,101024.91
2022-10-07T02:50:18.402Z,101021.34
2022-10-07T02:50:49.769Z,101029.00
2022-10-07T02:51:21.515Z,101024.34
2022-10-07T02:51:52.940Z,101027.09
2022-10-07T02:52:24.387Z,101020.78
2022-10-07T02:52:55.826Z,101021.63
2022-10-07T02:53:27.231Z,101020.78
2022-10-07T02:53:58.659Z,101027.34
2022-10-07T02:54:30.011Z,101023.53
2022-10-07T02:55:01.403Z,101023.81
2022-10-07T02:55:32.738Z,101026.25
2022-10-07T02:56:04.106Z,101026.53
2022-10-07T02:56:35.495Z,101021.06
2022-10-07T02:57:06.929Z,101028.72
2022-10-07T02:57:38.382Z,101021.63
2022-10-07T02:58:09.890Z,101018.06
2022-10-07T02:58:41.289Z,101016.69
2022-10-07T02:59:12.706Z,101019.44
2022-10-07T02:59:44.131Z,101021.63
2022-10-07T03:00:15.453Z,101022.16
2022-10-07T03:00:46.867Z,101018.06
2022-10-07T03:01:18.278Z,101013.69
2022-10-07T03:01:49.718Z,101017.50
2022-10-07T03:02:21.129Z,101014.22
2022-10-07T03:02:52.479Z,101010.69
2022-10-07T03:03:24.006Z,101017.50
2022-10-07T03:03:55.442Z,101016.69
2022-10-07T03:04:26.927Z,101020.53
2022-10-07T03:04:58.340Z,101019.69
2022-10-07T03:05:29.816Z,101013.41
2022-10-07T03:06:01.217Z,101015.59
2022-10-07T03:06:32.635Z,101018.88
2022-10-07T03:07:04.078Z,101018.59
2022-10-07T03:07:35.422Z,101016.16
2022-10-07T03:08:06.804Z,101010.13
2022-10-07T03:08:38.189Z,101018.34
2022-10-07T03:09:09.594Z,101009.31
2022-10-07T03:09:40.961Z,101018.34
2022-10-07T03:10:12.342Z,101017.78
2022-10-07T03:10:43.761Z,101010.69
2022-10-07T03:11:15.168Z,101019.69
2022-10-07T03:11:46.614Z,101019.16
2022-10-07T03:12:18.051Z,101013.41
2022-10-07T03:12:49.408Z,101007.94
2022-10-07T03:13:20.748Z,101011.78
2022-10-07T03:13:52.202Z,101012.31
2022-10-07T03:14:23.567Z,101006.31
2022-10-07T03:14:54.963Z,101011.50
2022-10-07T03:15:26.404Z,101009.31
2022-10-07T03:15:57.922Z,101010.13
2022-10-07T03:16:29.456Z,101007.94
2022-10-07T03:17:00.893Z,101007.69
2022-10-07T03:17:32.277Z,101011.50
2022-10-07T03:18:03.659Z,101007.41
2022-10-07T03:18:35.004Z,101002.75
2022-10-07T03:19:06.393Z,101002.19
2022-10-07T03:19:37.836Z,101007.94
2022-10-07T03:20:09.187Z,101004.13
2022-10-07T03:20:40.575Z,100997.84
2022-10-07T03:21:11.923Z,101000.28
2022-10-07T03:21:43.266Z,100998.66
2022-10-07T03:22:14.708Z,101002.22
2022-10-07T03:22:46.104Z,100993.47
2022-10-07T03:23:17.533Z,100999.75
2022-10-07T03:23:48.949Z,100999.47
2022-10-07T03:24:20.301Z,101002.75
2022-10-07T03:24:51.708Z,100999.19
2022-10-07T03:25:23.059Z,100998.38
2022-10-07T03:25:54.441Z,101000.56
2022-10-07T03:26:25.905Z,101000.00
2022-10-07T03:26:57.231Z,101000.28
2022-10-07T03:27:28.628Z,101001.09
2022-10-07T03:28:00.043Z,100993.72
2022-10-07T03:28:31.532Z,101001.38
2022-10-07T03:29:02.960Z,100997.56
2022-10-07T03:29:34.359Z,100999.19
2022-10-07T03:30:05.735Z,100995.38
2022-10-07T03:30:37.209Z,100994.53
2022-10-07T03:31:08.693Z,100991.53
2022-10-07T03:31:40.143Z,100999.19
2022-10-07T03:32:11.550Z,100999.19
2022-10-07T03:32:42.925Z,100995.91
2022-10-07T03:33:14.355Z,100994.53
2022-10-07T03:33:45.714Z,100994.81
2022-10-07T03:34:17.147Z,100997.81
2022-10-07T03:34:48.542Z,100994.00
2022-10-07T03:35:19.920Z,100988.25
2022-10-07T03:35:51.311Z,100992.63
2022-10-07T03:36:22.724Z,100989.91
2022-10-07T03:36:54.187Z,100987.72
2022-10-07T03:37:25.574Z,100992.38
2022-10-07T03:37:56.904Z,100993.19
2022-10-07T03:38:28.266Z,100994.81
2022-10-07T03:38:59.697Z,100992.63
2022-10-07T03:39:31.060Z,100994.81
2022-10-07T03:40:02.546Z,100999.19
2022-10-07T03:40:33.937Z,100988.25
2022-10-07T03:41:05.293Z,100987.72
2022-10-07T03:41:36.692Z,100992.63
2022-10-07T03:42:08.095Z,100986.91
2022-10-07T03:42:39.461Z,100985.53
2022-10-07T03:43:10.864Z,100984.44
2022-10-07T03:43:42.245Z,100988.00
2022-10-07T03:44:13.589Z,100983.06
2022-10-07T03:44:45.043Z,100986.63
2022-10-07T03:45:16.405Z,100987.72
2022-10-07T03:45:47.831Z,100984.16
2022-10-07T03:46:19.213Z,100983.06
2022-10-07T03:46:50.694Z,100983.88
2022-10-07T03:47:22.395Z,100983.88
2022-10-07T03:47:53.761Z,100986.06
2022-10-07T03:48:25.102Z,100988.25
2022-10-07T03:48:56.443Z,100976.22
2022-10-07T03:49:27.786Z,100983.06
2022-10-07T03:49:59.226Z,100989.91
2022-10-07T03:50:30.642Z,100983.34
2022-10-07T03:51:02.017Z,100985.25
2022-10-07T03:51:33.465Z,100986.63
2022-10-07T03:52:04.834Z,100986.91
2022-10-07T03:52:36.315Z,100980.59
2022-10-07T03:53:07.660Z,100973.50
2022-10-07T03:53:38.995Z,100981.16
2022-10-07T03:54:10.419Z,100984.44
2022-10-07T03:54:41.814Z,100984.72
2022-10-07T03:55:13.301Z,100983.06
2022-10-07T03:55:44.658Z,100987.16
2022-10-07T03:56:16.053Z,100987.44
2022-10-07T03:56:47.415Z,100982.53
2022-10-07T03:57:18.869Z,100981.97
2022-10-07T03:57:50.247Z,100981.69
2022-10-07T03:58:21.803Z,100982.78
2022-10-07T03:58:53.154Z,100989.91
2022-10-07T03:59:24.589Z,100979.78
2022-10-07T03:59:55.982Z,100984.97
2022-10-07T04:00:27.330Z,100985.81
2022-10-07T04:00:58.763Z,100989.34
2022-10-07T04:01:30.219Z,100988.25
2022-10-07T04:02:01.645Z,100982.25
2022-10-07T04:02:33.083Z,100988.00
2022-10-07T04:03:04.521Z,100985.25
2022-10-07T04:03:35.930Z,100984.97
2022-10-07T04:04:07.358Z,100971.31
2022-10-07T04:04:38.703Z,100983.88
2022-10-07T04:05:10.134Z,100984.97
2022-10-07T04:05:41.533Z,100984.97
2022-10-07T04:06:12.990Z,100981.69
2022-10-07T04:06:44.382Z,100988.25
2022-10-07T04:07:15.721Z,100983.63
2022-10-07T04:07:47.356Z,100989.34
2022-10-07T04:08:18.955Z,100980.88
2022-10-07T04:08:50.339Z,100985.53
2022-10-07T04:09:21.722Z,100975.13
2022-10-07T04:09:53.113Z,100975.97
2022-10-07T04:10:24.518Z,100974.59
2022-10-07T04:10:55.914Z,100977.88
2022-10-07T04:11:27.369Z,100977.88
2022-10-07T04:11:58.710Z,100982.25
2022-10-07T04:12:30.141Z,100976.50
2022-10-07T04:13:01.526Z,100973.22
2022-10-07T04:13:32.895Z,100975.69
2022-10-07T04:14:04.351Z,100975.69
2022-10-07T04:14:35.667Z,100980.59
2022-10-07T04:15:07.034Z,100981.16
2022-10-07T04:15:38.395Z,100981.97
2022-10-07T04:16:10.051Z,100969.94
2022-10-07T04:16:41.477Z,100974.03
2022-10-07T04:17:12.863Z,100970.75
2022-10-07T04:17:44.642Z,100972.41
2022-10-07T04:18:16.245Z,100976.78
2022-10-07T04:18:47.641Z,100966.66
2022-10-07T04:19:19.017Z,100971.59
2022-10-07T04:19:50.392Z,100965.31
2022-10-07T04:20:21.770Z,100971.03
2022-10-07T04:20:53.187Z,100966.94
2022-10-07T04:21:24.522Z,100963.94
2022-10-07T04:21:55.921Z,100968.59
2022-10-07T04:22:27.309Z,100962.28
2022-10-07T04:22:58.806Z,100963.94
2022-10-07T04:23:30.269Z,100966.41
2022-10-07T04:24:01.838Z,100964.22
2022-10-07T04:24:33.207Z,100965.84
2022-10-07T04:25:04.573Z,100968.03
2022-10-07T04:25:35.987Z,100963.09
2022-10-07T04:26:07.549Z,100965.56
2022-10-07T04:26:39.068Z,100962.28
2022-10-07T04:27:10.446Z,100967.47
2022-10-07T04:27:51.539Z,100958.47
2022-10-07T04:28:23.588Z,100965.56
2022-10-07T04:28:55.049Z,100964.75
2022-10-07T04:29:26.490Z,100967.47
2022-10-07T04:29:57.841Z,100963.38
2022-10-07T04:30:29.327Z,100958.19
2022-10-07T04:31:00.823Z,100958.47
2022-10-07T04:31:32.377Z,100959.28
2022-10-07T04:32:03.831Z,100963.13
2022-10-07T04:32:35.440Z,100960.09
2022-10-07T04:33:06.795Z,100965.03
2022-10-07T04:33:38.236Z,100961.75
2022-10-07T04:34:09.654Z,100957.38
2022-10-07T04:34:41.084Z,100960.38
2022-10-07T04:35:12.518Z,100958.47
2022-10-07T04:35:43.935Z,100958.19
2022-10-07T04:36:15.434Z,100963.94
2022-10-07T04:36:46.871Z,100958.72
2022-10-07T04:37:18.237Z,100965.28
2022-10-07T04:37:49.618Z,100961.47
2022-10-07T04:38:23.305Z,100965.84
2022-10-07T04:38:57.760Z,100968.59
2022-10-07T04:39:49.109Z,100967.50
2022-10-07T04:40:20.499Z,100965.03
2022-10-07T04:40:51.899Z,100958.47
2022-10-07T04:41:23.343Z,100966.41
2022-10-07T04:41:54.789Z,100962.56
2022-10-07T04:42:26.147Z,100963.13
2022-10-07T04:42:57.520Z,100963.13
2022-10-07T04:43:29.105Z,100963.66
2022-10-07T04:44:00.460Z,100957.38
2022-10-07T04:44:31.882Z,100958.75
2022-10-07T04:45:03.241Z,100965.56
2022-10-07T04:45:34.667Z,100962.03
2022-10-07T04:46:06.087Z,100963.38
2022-10-07T04:46:37.536Z,100967.50
2022-10-07T04:47:09.097Z,100962.03
2022-10-07T04:47:40.507Z,100963.66
2022-10-07T04:48:12.009Z,100967.50
2022-10-07T04:48:43.405Z,100969.13
2022-10-07T04:49:14.756Z,100957.09
2022-10-07T04:49:46.105Z,100959.28
2022-10-07T04:50:17.471Z,100954.38
2022-10-07T04:50:48.817Z,100960.38
2022-10-07T04:51:20.275Z,100964.22
2022-10-07T04:51:51.689Z,100963.94
2022-10-07T04:52:23.013Z,100956.56
2022-10-07T04:52:54.445Z,100954.63
2022-10-07T04:53:25.812Z,100958.19
2022-10-07T04:53:57.353Z,100951.63
2022-10-07T04:54:28.785Z,100954.38
2022-10-07T04:55:00.171Z,100956.56
2022-10-07T04:55:31.623Z,100951.63
2022-10-07T04:56:02.990Z,100954.09
2022-10-07T04:56:34.408Z,100953.00
2022-10-07T04:57:05.849Z,100953.28
2022-10-07T04:57:37.228Z,100957.66
2022-10-07T04:58:08.712Z,100952.44
2022-10-07T04:58:40.166Z,100947.81
2022-10-07T04:59:11.570Z,100952.44
2022-10-07T04:59:43.328Z,100946.44
2022-10-07T05:00:14.784Z,100943.16
2022-10-07T05:00:46.205Z,100946.97
2022-10-07T05:01:17.725Z,100947.53
2022-10-07T05:01:49.162Z,100946.69
2022-10-07T05:02:20.749Z,100946.72
2022-10-07T05:02:52.178Z,100937.13
2022-10-07T05:03:23.550Z,100939.59
2022-10-07T05:03:55.033Z,100942.06
2022-10-07T05:04:26.471Z,100949.44
2022-10-07T05:04:57.927Z,100936.84
2022-10-07T05:05:29.319Z,100943.69
2022-10-07T05:06:05.187Z,100941.50
2022-10-07T05:06:37.112Z,100941.25
2022-10-07T05:07:08.681Z,100939.88
2022-10-07T05:07:40.274Z,100943.97
2022-10-07T05:08:11.661Z,100947.00
2022-10-07T05:08:43.108Z,100943.72
2022-10-07T05:09:14.453Z,100939.88
2022-10-07T05:09:45.787Z,100936.06
2022-10-07T05:10:17.177Z,100936.06
2022-10-07T05:10:48.544Z,100936.88
2022-10-07T05:11:19.955Z,100942.59
2022-10-07T05:11:51.468Z,100939.06
2022-10-07T05:12:22.873Z,100943.16
2022-10-07T05:12:56.161Z,100940.69
2022-10-07T05:13:27.995Z,100943.44
2022-10-07T05:13:59.410Z,100943.97
2022-10-07T05:14:30.872Z,100947.53
2022-10-07T05:15:02.271Z,100936.06
2022-10-07T05:15:33.718Z,100941.78
2022-10-07T05:16:05.176Z,100935.22
2022-10-07T05:16:36.646Z,100937.69
2022-10-07T05:17:08.014Z,100935.22
2022-10-07T05:17:39.476Z,100939.88
2022-10-07T05:18:10.916Z,100935.78
2022-10-07T05:18:42.273Z,100933.03
2022-10-07T05:19:13.672Z,100932.78
2022-10-07T05:19:45.076Z,100938.78
2022-10-07T05:20:16.482Z,100938.25
2022-10-07T05:20:47.830Z,100934.41
2022-10-07T05:21:19.212Z,100936.06
2022-10-07T05:21:50.568Z,100933.03
2022-10-07T05:22:22.055Z,100940.44
2022-10-07T05:22:54.023Z,100938.78
2022-10-07T05:23:28.341Z,100930.84
2022-10-07T05:24:00.026Z,100933.59
2022-10-07T05:24:31.412Z,100933.88
2022-10-07T05:25:02.768Z,100935.78
2022-10-07T05:25:34.147Z,100929.75
2022-10-07T05:26:05.503Z,100930.03
2022-10-07T05:26:36.898Z,100931.41
2022-10-07T05:27:08.288Z,100930.59
2022-10-07T05:27:39.648Z,100927.56
2022-10-07T05:28:11.109Z,100935.22
2022-10-07T05:28:42.683Z,100930.59
2022-10-07T05:29:14.170Z,100930.88
2022-10-07T05:29:45.489Z,100931.69
2022-10-07T05:30:16.821Z,100930.31
2022-10-07T05:30:48.162Z,100933.88
2022-10-07T05:31:19.664Z,100930.03
2022-10-07T05:31:51.099Z,100930.03
2022-10-07T05:32:22.518Z,100925.13
2022-10-07T05:32:53.855Z,100930.31
2022-10-07T05:33:25.251Z,100933.59
2022-10-07T05:33:56.694Z,100933.03
2022-10-07T05:34:28.067Z,100929.22
2022-10-07T05:34:59.491Z,100931.69
2022-10-07T05:35:30.943Z,100928.94
2022-10-07T05:36:02.440Z,100927.56
2022-10-07T05:36:33.796Z,100926.47
2022-10-07T05:37:05.397Z,100928.66
2022-10-07T05:37:36.712Z,100930.84
2022-10-07T05:38:08.086Z,100928.66
2022-10-07T05:38:39.486Z,100932.22
2022-10-07T05:39:10.847Z,100928.13
2022-10-07T05:39:42.202Z,100928.66
2022-10-07T05:40:13.613Z,100925.94
2022-10-07T05:40:45.063Z,100932.22
2022-10-07T05:41:16.447Z,100928.13
2022-10-07T05:41:47.807Z,100929.22
2022-10-07T05:42:19.211Z,100924.56
2022-10-07T05:42:50.692Z,100921.84
2022-10-07T05:43:22.054Z,100924.28
2022-10-07T05:43:53.421Z,100922.94
2022-10-07T05:44:24.794Z,100928.66
2022-10-07T05:44:56.170Z,100920.47
2022-10-07T05:45:27.604Z,100923.47
2022-10-07T05:45:59.150Z,100925.38
2022-10-07T05:46:30.532Z,100925.94
2022-10-07T05:47:01.924Z,100928.13
2022-10-07T05:47:33.274Z,100926.22
2022-10-07T05:48:04.676Z,100923.47
2022-10-07T05:48:39.287Z,100925.94
2022-10-07T05:49:11.086Z,100924.56
2022-10-07T05:49:42.435Z,100917.75
2022-10-07T05:50:13.785Z,100920.47
2022-10-07T05:50:45.165Z,100922.13
2022-10-07T05:51:16.578Z,100922.66
2022-10-07T05:51:47.959Z,100917.47
2022-10-07T05:52:19.358Z,100923.75
2022-10-07T05:52:50.708Z,100910.09
2022-10-07T05:53:22.078Z,100916.38
2022-10-07T05:53:53.428Z,100915.56
2022-10-07T05:54:24.831Z,100916.66
2022-10-07T05:54:56.345Z,100912.28
2022-10-07T05:55:27.735Z,100919.38
2022-10-07T05:55:59.104Z,100913.91
2022-10-07T05:56:30.570Z,100918.00
2022-10-07T05:57:01.963Z,100915.00
2022-10-07T05:57:33.301Z,100911.72
2022-10-07T05:58:04.705Z,100917.47
2022-10-07T05:58:36.091Z,100907.34
2022-10-07T05:59:07.491Z,100915.00
2022-10-07T05:59:38.958Z,100916.63
2022-10-07T06:00:10.330Z,100913.91
2022-10-07T06:00:41.737Z,100911.72
2022-10-07T06:01:14.308Z,100908.97
2022-10-07T06:01:45.939Z,100904.63
2022-10-07T06:02:17.433Z,100908.16
2022-10-07T06:02:49.097Z,100905.44
2022-10-07T06:03:20.570Z,100905.97
2022-10-07T06:03:52.059Z,100908.72
2022-10-07T06:04:23.410Z,100903.25
2022-10-07T06:04:54.810Z,100901.34
2022-10-07T06:05:26.202Z,100905.69
2022-10-07T06:05:57.562Z,100900.78
2022-10-07T06:06:28.912Z,100908.44
2022-10-07T06:07:00.320Z,100900.78
2022-10-07T06:07:31.735Z,100906.53
2022-10-07T06:08:03.121Z,100899.97
2022-10-07T06:08:34.468Z,100896.69
2022-10-07T06:09:05.790Z,100904.88
2022-10-07T06:09:37.404Z,100901.06
2022-10-07T06:10:08.821Z,100897.50
2022-10-07T06:10:40.255Z,100896.44
2022-10-07T06:11:11.597Z,100899.97
2022-10-07T06:11:43.076Z,100896.13
2022-10-07T06:12:14.460Z,100901.34
2022-10-07T06:12:45.857Z,100893.69
2022-10-07T06:13:17.350Z,100899.16
2022-10-07T06:13:48.764Z,100896.41
2022-10-07T06:14:20.177Z,100898.06
2022-10-07T06:14:51.522Z,100894.22
2022-10-07T06:15:22.907Z,100891.50
2022-10-07T06:15:54.327Z,100894.50
2022-10-07T06:16:25.822Z,100898.59
2022-10-07T06:16:57.290Z,100892.03
2022-10-07T06:17:28.707Z,100887.94
2022-10-07T06:18:00.090Z,100888.75
2022-10-07T06:18:31.557Z,100893.13
2022-10-07T06:19:02.974Z,100895.88
2022-10-07T06:19:34.352Z,100896.13
2022-10-07T06:20:05.731Z,100893.94
2022-10-07T06:20:37.178Z,100895.31
2022-10-07T06:21:08.643Z,100898.59
2022-10-07T06:21:40.025Z,100895.03
2022-10-07T06:22:11.362Z,100887.94
2022-10-07T06:22:42.842Z,100893.66
2022-10-07T06:23:14.233Z,100895.84
2022-10-07T06:23:45.577Z,100895.84
2022-10-07T06:24:17.116Z,100900.50
2022-10-07T06:24:48.506Z,100895.03
2022-10-07T06:25:19.974Z,100894.75
2022-10-07T06:25:51.428Z,100893.94
2022-10-07T06:26:22.828Z,100895.84
2022-10-07T06:26:54.238Z,100897.75
2022-10-07T06:27:25.611Z,100895.84
2022-10-07T06:27:57.663Z,100895.31
2022-10-07T06:28:29.464Z,100887.94
2022-10-07T06:29:00.909Z,100893.41
2022-10-07T06:29:32.277Z,100893.66
2022-10-07T06:30:03.674Z,100898.03
2022-10-07T06:30:35.294Z,100890.94
2022-10-07T06:31:06.800Z,100893.94
2022-10-07T06:31:38.369Z,100898.03
2022-10-07T06:32:09.723Z,100896.97
2022-10-07T06:32:41.098Z,100893.69
2022-10-07T06:33:12.487Z,100895.88
2022-10-07T06:33:43.884Z,100896.13
2022-10-07T06:34:15.274Z,100899.41
2022-10-07T06:34:46.721Z,100897.78
2022-10-07T06:35:18.141Z,100901.59
2022-10-07T06:35:49.577Z,100895.88
2022-10-07T06:36:21.004Z,100896.97
2022-10-07T06:36:52.355Z,100901.06
2022-10-07T06:37:23.776Z,100894.50
2022-10-07T06:37:55.169Z,100893.41
2022-10-07T06:38:26.671Z,100892.84
2022-10-07T06:38:58.061Z,100897.22
2022-10-07T06:39:29.392Z,100902.97
2022-10-07T06:40:00.749Z,100897.50
2022-10-07T06:40:32.136Z,100890.09
2022-10-07T06:41:03.615Z,100899.13
2022-10-07T06:41:35.197Z,100893.38
2022-10-07T06:42:06.775Z,100891.19
2022-10-07T06:42:38.126Z,100897.50
2022-10-07T06:43:09.525Z,100896.94
2022-10-07T06:43:40.952Z,100896.94
2022-10-07T06:44:12.369Z,100890.38
2022-10-07T06:44:43.763Z,100896.66
2022-10-07T06:45:15.144Z,100893.09
2022-10-07T06:45:46.605Z,100887.63
2022-10-07T06:46:18.166Z,100886.00
2022-10-07T06:46:49.677Z,100891.75
2022-10-07T06:47:21.050Z,100891.75
2022-10-07T06:47:52.434Z,100892.56
2022-10-07T06:48:24.109Z,100890.38
2022-10-07T06:48:55.586Z,100890.38
2022-10-07T06:49:26.930Z,100891.75
2022-10-07T06:49:58.307Z,100883.28
2022-10-07T06:50:29.657Z,100889.03
2022-10-07T06:51:01.037Z,100880.00
2022-10-07T06:51:32.466Z,100885.19
2022-10-07T06:52:03.881Z,100877.53
2022-10-07T06:52:37.136Z,100893.66
2022-10-07T06:53:11.458Z,100891.50
2022-10-07T06:53:42.861Z,100885.47
2022-10-07T06:54:14.241Z,100888.47
2022-10-07T06:54:45.681Z,100887.94
2022-10-07T06:55:17.036Z,100887.94
2022-10-07T06:55:48.463Z,100889.56
2022-10-07T06:56:19.857Z,100887.66
2022-10-07T06:56:51.349Z,100884.63
2022-10-07T06:58:14.053Z,100887.91
2022-10-07T06:58:45.444Z,100889.00
2022-10-07T06:59:16.826Z,100889.00
2022-10-07T06:59:48.186Z,100876.16
2022-10-07T07:00:19.541Z,100884.09
2022-10-07T07:00:50.954Z,100889.56
2022-10-07T07:01:22.421Z,100888.47
2022-10-07T07:01:53.971Z,100890.38
2022-10-07T07:02:25.644Z,100885.75
2022-10-07T07:02:57.399Z,100892.84
2022-10-07T07:03:28.742Z,100889.56
2022-10-07T07:04:00.104Z,100886.84
2022-10-07T07:04:31.476Z,100889.31
2022-10-07T07:05:42.803Z,100890.41
2022-10-07T07:06:16.978Z,100889.84
2022-10-07T07:06:48.377Z,100889.03
2022-10-07T07:07:19.774Z,100884.91
2022-10-07T07:07:51.185Z,100890.94
2022-10-07T07:08:22.614Z,100889.84
2022-10-07T07:08:53.980Z,100895.31
2022-10-07T07:09:25.390Z,100894.19
2022-10-07T07:09:56.762Z,100892.28
2022-10-07T07:10:28.164Z,100891.47
2022-10-07T07:10:59.564Z,100895.31
2022-10-07T07:11:30.900Z,100893.94
2022-10-07T07:12:02.393Z,100894.75
2022-10-07T07:12:33.813Z,100898.03
2022-10-07T07:13:05.216Z,100895.56
2022-10-07T07:13:36.599Z,100896.09
2022-10-07T07:14:08.027Z,100896.38
2022-10-07T07:14:39.443Z,100900.50
2022-10-07T07:15:10.814Z,100895.31
2022-10-07T07:15:42.168Z,100904.88
2022-10-07T07:16:13.633Z,100896.66
2022-10-07T07:16:45.099Z,100895.84
2022-10-07T07:17:16.529Z,100898.56
2022-10-07T07:17:48.504Z,100896.38
2022-10-07T07:18:20.073Z,100896.38
2022-10-07T07:18:51.424Z,100896.38
2022-10-07T07:19:22.884Z,100900.22
2022-10-07T07:19:54.253Z,100896.94
2022-10-07T07:20:25.658Z,100894.19
2022-10-07T07:20:57.114Z,100893.38
2022-10-07T07:21:28.517Z,100895.03
2022-10-07T07:21:59.915Z,100898.84
2022-10-07T07:22:31.407Z,100897.22
2022-10-07T07:23:02.821Z,100894.75
2022-10-07T07:23:34.216Z,100896.66
2022-10-07T07:24:05.523Z,100890.66
2022-10-07T07:24:36.898Z,100901.03
2022-10-07T07:25:08.286Z,100893.94
2022-10-07T07:25:39.693Z,100900.50
2022-10-07T07:26:11.170Z,100899.41
2022-10-07T07:26:42.544Z,100892.03
2022-10-07T07:27:13.946Z,100910.34
2022-10-07T07:27:45.546Z,100904.06
2022-10-07T07:28:17.127Z,100904.59
2022-10-07T07:28:48.641Z,100896.13
2022-10-07T07:29:20.051Z,100901.31
2022-10-07T07:29:51.512Z,100902.97
2022-10-07T07:30:22.932Z,100898.59
2022-10-07T07:30:54.482Z,100904.31
2022-10-07T07:31:25.907Z,100901.88
2022-10-07T07:31:57.291Z,100904.06
2022-10-07T07:32:28.648Z,100901.88
2022-10-07T07:33:00.018Z,100899.41
2022-10-07T07:33:31.617Z,100899.97
2022-10-07T07:34:03.026Z,100902.13
2022-10-07T07:34:34.430Z,100903.22
2022-10-07T07:35:05.850Z,100901.06
2022-10-07T07:35:37.287Z,100899.97
2022-10-07T07:36:08.717Z,100901.31
2022-10-07T07:36:40.092Z,100898.59
2022-10-07T07:37:11.478Z,100893.94
2022-10-07T07:37:43.113Z,100900.50
2022-10-07T07:38:14.718Z,100900.22
2022-10-07T07:38:46.124Z,100894.47
2022-10-07T07:39:17.437Z,100901.59
2022-10-07T07:39:48.795Z,100894.75
2022-10-07T07:40:20.197Z,100895.56
2022-10-07T07:40:51.561Z,100889.84
2022-10-07T07:41:22.986Z,100893.94
2022-10-07T07:41:54.374Z,100890.38
2022-10-07T07:42:25.805Z,100893.94
2022-10-07T07:42:57.225Z,100892.03
2022-10-07T07:43:28.626Z,100890.94
2022-10-07T07:44:00.062Z,100889.56
2022-10-07T07:44:34.742Z,100885.19
2022-10-07T07:45:06.528Z,100888.19
2022-10-07T07:45:37.878Z,100886.00
2022-10-07T07:46:09.351Z,100886.00
2022-10-07T07:46:40.756Z,100884.91
2022-10-07T07:47:12.187Z,100885.19
2022-10-07T07:47:43.946Z,100887.38
2022-10-07T07:48:15.582Z,100883.00
2022-10-07T07:48:46.981Z,100881.34
2022-10-07T07:49:18.386Z,100886.53
2022-10-07T07:49:49.773Z,100883.00
2022-10-07T07:50:21.131Z,100879.16
2022-10-07T07:50:52.538Z,100883.81
2022-10-07T07:51:23.922Z,100880.78
2022-10-07T07:51:55.305Z,100882.44
2022-10-07T07:52:26.766Z,100882.44
2022-10-07T07:52:58.167Z,100884.91
2022-10-07T07:53:29.624Z,100884.34
2022-10-07T07:54:01.023Z,100881.63
2022-10-07T07:54:32.429Z,100888.19
2022-10-07T07:55:03.840Z,100883.81
2022-10-07T07:55:35.210Z,100885.16
2022-10-07T07:56:06.578Z,100881.63
2022-10-07T07:56:37.951Z,100877.53
2022-10-07T07:57:09.424Z,100871.22
2022-10-07T07:57:40.808Z,100881.63
2022-10-07T07:58:12.183Z,100883.25
2022-10-07T07:58:43.542Z,100879.97
2022-10-07T07:59:14.993Z,100882.16
2022-10-07T07:59:46.379Z,100871.22
2022-10-07T08:00:17.772Z,100881.63
2022-10-07T08:00:49.247Z,100880.78
2022-10-07T08:01:20.700Z,100873.69
2022-10-07T08:01:52.213Z,100873.41
2022-10-07T08:02:23.832Z,100864.41
2022-10-07T08:02:55.333Z,100874.78
2022-10-07T08:03:26.683Z,100878.91
2022-10-07T08:03:58.165Z,100876.44
2022-10-07T08:04:29.517Z,100875.06
2022-10-07T08:05:00.877Z,100866.88
2022-10-07T08:05:32.221Z,100871.78
2022-10-07T08:06:03.603Z,100876.44
2022-10-07T08:06:35.034Z,100872.91
2022-10-07T08:07:06.525Z,100871.81
2022-10-07T08:07:37.934Z,100870.97
2022-10-07T08:08:09.294Z,100872.63
2022-10-07T08:08:40.729Z,100863.63
2022-10-07T08:09:12.118Z,100874.81
2022-10-07T08:09:43.522Z,100874.53
2022-10-07T08:10:14.845Z,100869.63
2022-10-07T08:10:51.028Z,100866.63
2022-10-07T08:11:23.226Z,100867.44
2022-10-07T08:11:54.591Z,100871.00
2022-10-07T08:12:26.019Z,100872.38
2022-10-07T08:12:57.539Z,100868.53
2022-10-07T08:13:28.993Z,100866.63
2022-10-07T08:14:00.640Z,100867.44
2022-10-07T08:14:32.042Z,100868.28
2022-10-07T08:15:03.527Z,100867.72
2022-10-07T08:15:34.996Z,100864.44
2022-10-07T08:16:06.441Z,100869.91
2022-10-07T08:16:37.844Z,100870.72
2022-10-07T08:17:09.215Z,100868.00
2022-10-07T08:17:40.625Z,100858.44
2022-10-07T08:18:12.011Z,100865.00
2022-10-07T08:18:43.401Z,100865.53
2022-10-07T08:19:14.739Z,100867.19
2022-10-07T08:19:46.177Z,100869.38
2022-10-07T08:20:17.543Z,100872.91
2022-10-07T08:20:48.923Z,100870.72
2022-10-07T08:21:20.417Z,100869.09
2022-10-07T08:21:51.848Z,100862.81
2022-10-07T08:22:23.296Z,100867.72
2022-10-07T08:22:58.889Z,100870.47
2022-10-07T08:23:30.506Z,100865.28
2022-10-07T08:24:01.869Z,100864.19
2022-10-07T08:24:33.198Z,100865.81
2022-10-07T08:25:04.597Z,100864.72
2022-10-07T08:25:35.985Z,100868.28
2022-10-07T08:26:07.418Z,100862.00
2022-10-07T08:26:38.848Z,100860.06
2022-10-07T08:27:10.255Z,100860.06
2022-10-07T08:27:41.669Z,100863.63
2022-10-07T08:28:13.065Z,100864.72
2022-10-07T08:28:44.503Z,100855.97
2022-10-07T08:29:15.909Z,100856.78
2022-10-07T08:29:47.287Z,100864.72
2022-10-07T08:30:18.697Z,100861.44